Mount Boyce, Australia
Current Conditions -  °F | °C
As of 6:00 PM on Tuesday 21 Oct 2014 (Local Time) from YSRI Reporting Station
Overcast Overcast  
Wind Chill: 63°   Ceiling: 4600
Heat Index: 63°   Visibility: 6mi
Dew Point: 48°   Wind: 6mph
Humidity: 59%   Direction: 60°ENE
Pressure: 30.39"   Gusts: NA
Location:  33.62°S, 150.27°E
Report Text: YSRI 210700Z AUTO 06005KT 9999 // OVC046 17/09 Q1029
Loading
Personal Weather Stations






























Interactive Weather Map
Tropical Storm Tracking
New forecast layout! Learn more

10-Day Weather Forecast

Advertisements
Track Severe Weather on mobile